createdAt,value
2018-05-09T00:02:24.376Z,21.20
2018-05-09T00:04:53.012Z,21.20
2018-05-09T00:07:21.234Z,21.20
2018-05-09T00:09:50.241Z,21.30
2018-05-09T00:12:18.476Z,21.20
2018-05-09T00:14:46.724Z,21.10
2018-05-09T00:17:14.956Z,21.20
2018-05-09T00:19:43.190Z,21.20
2018-05-09T00:22:11.421Z,21.20
2018-05-09T00:24:40.421Z,21.20
2018-05-09T00:27:09.424Z,21.20
2018-05-09T00:29:38.412Z,21.20
2018-05-09T00:32:07.416Z,21.20
2018-05-09T00:34:35.643Z,21.20
2018-05-09T00:37:03.868Z,21.20
2018-05-09T00:39:32.103Z,21.20
2018-05-09T00:42:01.106Z,21.20
2018-05-09T00:44:30.104Z,21.20
2018-05-09T00:46:59.098Z,21.20
2018-05-09T00:49:28.226Z,21.20
2018-05-09T00:51:56.460Z,21.20
2018-05-09T00:54:32.441Z,21.20
2018-05-09T00:57:00.676Z,21.20
2018-05-09T00:59:29.417Z,21.20
2018-05-09T01:01:57.657Z,21.20
2018-05-09T01:04:25.897Z,21.20
2018-05-09T01:06:54.124Z,21.10
2018-05-09T01:09:22.777Z,21.20
2018-05-09T01:11:51.773Z,21.10
2018-05-09T01:14:20.754Z,21.10
2018-05-09T01:16:49.401Z,21.10
2018-05-09T01:19:17.624Z,21.10
2018-05-09T01:21:45.846Z,21.10
2018-05-09T01:24:14.495Z,21.10
2018-05-09T01:26:43.500Z,21.10
2018-05-09T01:29:11.728Z,21.10
2018-05-09T01:31:39.945Z,21.10
2018-05-09T01:34:09.190Z,21.10
2018-05-09T01:36:38.555Z,21.10
2018-05-09T01:39:07.194Z,21.10
2018-05-09T01:41:35.405Z,21.00
2018-05-09T01:44:03.642Z,21.10
2018-05-09T01:46:31.862Z,21.00
2018-05-09T01:49:00.080Z,21.00
2018-05-09T01:51:29.452Z,21.00
2018-05-09T01:53:57.667Z,21.00
2018-05-09T01:56:25.929Z,21.10
2018-05-09T01:58:54.143Z,21.10
2018-05-09T02:01:23.126Z,21.10
2018-05-09T02:03:51.768Z,21.00
2018-05-09T02:06:20.746Z,21.00
2018-05-09T02:11:18.443Z,21.00
2018-05-09T02:13:46.666Z,21.00
2018-05-09T02:16:14.892Z,21.00
2018-05-09T02:18:43.114Z,21.00
2018-05-09T02:21:11.351Z,21.00
2018-05-09T02:23:39.560Z,21.00
2018-05-09T02:26:08.166Z,21.00
2018-05-09T02:28:36.401Z,21.00
2018-05-09T02:31:04.640Z,21.00
2018-05-09T02:33:32.863Z,21.00
2018-05-09T02:36:01.066Z,21.00
2018-05-09T02:38:29.419Z,21.00
2018-05-09T02:40:57.665Z,21.00
2018-05-09T02:43:26.656Z,21.00
2018-05-09T02:45:55.659Z,21.00
2018-05-09T02:48:24.638Z,21.00
2018-05-09T02:50:52.867Z,21.00
2018-05-09T02:53:21.075Z,20.90
2018-05-09T02:55:49.495Z,20.90
2018-05-09T02:58:17.719Z,20.90
2018-05-09T03:00:46.330Z,20.90
2018-05-09T03:03:15.417Z,20.90
2018-05-09T03:05:44.412Z,20.90
2018-05-09T03:08:13.399Z,20.90
2018-05-09T03:10:42.019Z,20.90
2018-05-09T03:13:10.265Z,20.90
2018-05-09T03:15:39.634Z,20.90
2018-05-09T03:18:08.243Z,20.90
2018-05-09T03:20:37.959Z,20.90
2018-05-09T03:23:07.047Z,20.90
2018-05-09T03:25:36.042Z,20.90
2018-05-09T03:28:04.257Z,20.90
2018-05-09T03:30:32.484Z,20.90
2018-05-09T03:33:01.467Z,20.90
2018-05-09T03:35:29.685Z,20.90
2018-05-09T03:37:57.911Z,20.80
2018-05-09T03:40:26.891Z,20.80
2018-05-09T03:42:55.203Z,20.80
2018-05-09T03:45:23.420Z,20.80
2018-05-09T03:47:52.797Z,20.80
2018-05-09T03:50:21.012Z,20.80
2018-05-09T03:52:49.231Z,20.80
2018-05-09T03:55:17.454Z,20.80
2018-05-09T03:57:45.705Z,20.80
2018-05-09T04:00:13.930Z,20.80
2018-05-09T04:02:53.889Z,20.80
2018-05-09T04:05:34.523Z,20.80
2018-05-09T04:08:14.396Z,20.80
2018-05-09T04:10:42.770Z,20.80
2018-05-09T04:13:10.997Z,20.80
2018-05-09T04:15:39.597Z,20.80
2018-05-09T04:18:07.826Z,20.80
2018-05-09T04:23:05.501Z,20.80
2018-05-09T04:25:34.111Z,20.80
2018-05-09T04:28:03.194Z,20.80
2018-05-09T04:30:32.154Z,20.80
2018-05-09T04:33:00.370Z,20.80
2018-05-09T04:35:29.223Z,20.90
2018-05-09T04:37:57.850Z,20.80
2018-05-09T04:40:27.201Z,20.80
2018-05-09T04:42:55.416Z,20.80
2018-05-09T04:45:23.638Z,20.80
2018-05-09T04:47:52.253Z,20.80
2018-05-09T04:50:20.482Z,20.70
2018-05-09T04:52:48.702Z,20.80
2018-05-09T04:55:16.936Z,20.80
2018-05-09T05:02:49.233Z,20.80
2018-05-09T05:05:17.525Z,20.80
2018-05-09T05:07:46.543Z,20.70
2018-05-09T05:10:14.776Z,20.80
2018-05-09T05:12:43.002Z,20.80
2018-05-09T05:15:11.219Z,20.80
2018-05-09T05:17:40.226Z,20.80
2018-05-09T05:20:09.228Z,20.80
2018-05-09T05:22:38.201Z,20.80
2018-05-09T05:25:06.528Z,20.80
2018-05-09T05:27:34.777Z,20.80
2018-05-09T05:30:03.005Z,20.80
2018-05-09T05:35:01.441Z,20.80
2018-05-09T05:37:29.656Z,20.80
2018-05-09T05:39:59.415Z,20.80
2018-05-09T05:42:27.677Z,20.80
2018-05-09T05:44:56.842Z,20.80
2018-05-09T05:47:26.525Z,20.80
2018-05-09T05:49:54.742Z,20.80
2018-05-09T05:52:22.962Z,20.80
2018-05-09T05:54:51.182Z,20.80
2018-05-09T05:57:19.400Z,20.80
2018-05-09T05:59:48.402Z,20.80
2018-05-09T06:02:17.393Z,20.90
2018-05-09T06:04:46.393Z,20.80
2018-05-09T06:07:15.382Z,20.90
2018-05-09T06:09:43.607Z,20.80
2018-05-09T06:12:11.840Z,20.90
2018-05-09T06:14:40.055Z,20.80
2018-05-09T06:17:08.316Z,20.90
2018-05-09T06:19:37.306Z,20.90
2018-05-09T06:22:05.519Z,20.80
2018-05-09T06:24:33.772Z,20.80
2018-05-09T06:27:02.000Z,20.80
2018-05-09T06:29:30.251Z,20.90
2018-05-09T06:31:58.466Z,20.80
2018-05-09T06:34:26.675Z,20.90
2018-05-09T06:36:54.924Z,20.80
2018-05-09T06:39:23.155Z,20.90
2018-05-09T06:41:52.134Z,20.90
2018-05-09T06:44:20.370Z,20.90
2018-05-09T06:46:49.355Z,20.90
2018-05-09T06:49:17.574Z,20.90
2018-05-09T06:51:45.795Z,20.90
2018-05-09T06:54:14.020Z,20.90
2018-05-09T06:56:42.243Z,20.90
2018-05-09T06:59:10.462Z,20.90
2018-05-09T07:01:38.684Z,20.90
2018-05-09T07:04:07.172Z,20.90
2018-05-09T07:06:35.574Z,20.90
2018-05-09T07:09:03.795Z,20.90
2018-05-09T07:11:32.038Z,20.90
2018-05-09T07:14:00.258Z,20.90
2018-05-09T07:16:29.407Z,20.90
2018-05-09T07:18:57.627Z,20.90
2018-05-09T07:21:25.868Z,20.90
2018-05-09T07:23:54.862Z,20.90
2018-05-09T07:26:23.236Z,20.90
2018-05-09T07:28:52.226Z,20.90
2018-05-09T07:31:20.461Z,20.90
2018-05-09T07:33:48.707Z,20.90
2018-05-09T07:36:16.914Z,20.90
2018-05-09T07:38:45.170Z,20.90
2018-05-09T07:41:13.387Z,20.90
2018-05-09T07:43:41.597Z,21.00
2018-05-09T07:46:09.823Z,20.80
2018-05-09T07:48:38.053Z,20.90
2018-05-09T07:51:06.662Z,20.90
2018-05-09T07:53:34.911Z,20.90
2018-05-09T07:56:03.132Z,21.00
2018-05-09T07:58:31.358Z,21.00
2018-05-09T08:00:59.587Z,21.00
2018-05-09T08:03:27.809Z,21.00
2018-05-09T08:05:56.034Z,20.90
2018-05-09T08:08:24.459Z,21.00
2018-05-09T08:10:52.709Z,21.00
2018-05-09T08:13:20.934Z,21.00
2018-05-09T08:15:49.152Z,21.00
2018-05-09T08:18:17.368Z,21.00
2018-05-09T08:20:45.598Z,21.00
2018-05-09T08:23:13.832Z,20.80
2018-05-09T08:25:42.824Z,21.00
2018-05-09T08:28:11.042Z,21.00
2018-05-09T08:30:40.044Z,21.00
2018-05-09T08:33:08.274Z,21.00
2018-05-09T08:35:36.511Z,21.00
2018-05-09T08:38:05.492Z,21.00
2018-05-09T08:40:33.711Z,21.00
2018-05-09T08:43:01.937Z,21.00
2018-05-09T08:45:30.554Z,21.00
2018-05-09T08:47:58.793Z,21.00
2018-05-09T08:50:27.011Z,21.00
2018-05-09T08:52:55.230Z,21.00
2018-05-09T08:55:24.327Z,21.00
2018-05-09T08:57:52.832Z,21.00
2018-05-09T09:00:21.821Z,21.10
2018-05-09T09:02:50.794Z,21.00
2018-05-09T09:05:19.414Z,21.10
2018-05-09T09:07:47.647Z,21.10
2018-05-09T09:10:16.632Z,21.10
2018-05-09T09:12:44.850Z,21.00
2018-05-09T09:15:13.081Z,21.10
2018-05-09T09:17:41.580Z,21.10
2018-05-09T09:20:10.155Z,21.10
2018-05-09T09:22:38.374Z,21.10
2018-05-09T09:25:06.612Z,21.10
2018-05-09T09:27:34.822Z,21.10
2018-05-09T09:30:03.051Z,21.10
2018-05-09T09:32:32.051Z,21.10
2018-05-09T09:35:00.629Z,21.10
2018-05-09T09:37:29.602Z,21.10
2018-05-09T09:39:57.826Z,21.10
2018-05-09T09:42:26.063Z,21.10
2018-05-09T09:44:55.086Z,21.10
2018-05-09T09:47:23.309Z,21.10
2018-05-09T09:49:51.532Z,21.10
2018-05-09T09:52:19.756Z,21.10
2018-05-09T09:54:47.975Z,21.10
2018-05-09T09:57:16.204Z,21.10
2018-05-09T09:59:44.447Z,21.10
2018-05-09T10:02:12.658Z,21.20
2018-05-09T10:04:41.684Z,21.20
2018-05-09T10:07:09.899Z,21.10
2018-05-09T10:09:38.149Z,21.10
2018-05-09T10:12:06.338Z,21.10
2018-05-09T10:14:35.326Z,21.10
2018-05-09T10:17:03.547Z,21.10
2018-05-09T10:19:32.843Z,21.10
2018-05-09T10:22:01.060Z,21.10
2018-05-09T10:24:29.496Z,21.10
2018-05-09T10:26:57.736Z,21.10
2018-05-09T10:29:25.978Z,21.10
2018-05-09T10:31:54.193Z,21.10
2018-05-09T10:34:22.423Z,21.10
2018-05-09T10:36:50.627Z,21.10
2018-05-09T10:39:18.854Z,21.10
2018-05-09T10:41:47.830Z,21.10
2018-05-09T10:44:16.829Z,21.10
2018-05-09T10:46:45.042Z,21.10
2018-05-09T10:49:13.266Z,21.10
2018-05-09T10:51:41.488Z,21.10
2018-05-09T10:54:10.119Z,21.10
2018-05-09T10:56:39.116Z,21.10
2018-05-09T10:59:07.344Z,21.10
2018-05-09T11:01:35.807Z,21.10
2018-05-09T11:04:04.015Z,21.10
2018-05-09T11:06:32.238Z,21.10
2018-05-09T11:09:01.222Z,21.10
2018-05-09T11:11:29.448Z,21.10
2018-05-09T11:13:57.670Z,21.10
2018-05-09T11:16:26.646Z,21.10
2018-05-09T11:18:54.878Z,21.10
2018-05-09T11:21:23.103Z,21.10
2018-05-09T11:23:52.102Z,21.10
2018-05-09T11:28:49.779Z,21.10
2018-05-09T11:31:18.799Z,21.20
2018-05-09T11:33:47.754Z,21.20
2018-05-09T11:36:15.978Z,21.20
2018-05-09T11:38:44.197Z,21.20
2018-05-09T11:41:12.451Z,21.30
2018-05-09T11:43:41.473Z,21.30
2018-05-09T11:46:10.487Z,21.30
2018-05-09T11:48:38.732Z,21.30
2018-05-09T11:51:06.979Z,21.40
2018-05-09T11:53:36.722Z,21.40
2018-05-09T11:58:36.334Z,21.40
2018-05-09T12:01:04.598Z,21.40
2018-05-09T12:03:32.801Z,21.40
2018-05-09T12:06:01.025Z,21.40
2018-05-09T12:08:29.246Z,21.40
2018-05-09T12:10:57.523Z,21.30
2018-05-09T12:13:26.494Z,21.30
2018-05-09T12:15:54.982Z,21.20
2018-05-09T12:18:23.206Z,21.20
2018-05-09T12:20:51.438Z,21.20
2018-05-09T12:23:19.658Z,21.20
2018-05-09T12:25:47.907Z,21.20
2018-05-09T12:28:16.546Z,21.20
2018-05-09T12:30:44.777Z,21.20
2018-05-09T12:33:13.765Z,21.20
2018-05-09T12:35:42.001Z,21.20
2018-05-09T12:38:10.226Z,21.20
2018-05-09T12:40:38.478Z,21.30
2018-05-09T12:43:06.701Z,21.30
2018-05-09T12:45:34.948Z,21.40
2018-05-09T12:48:04.700Z,21.40
2018-05-09T12:50:32.919Z,21.40
2018-05-09T12:53:01.936Z,21.40
2018-05-09T12:55:30.183Z,21.50
2018-05-09T12:57:58.407Z,21.60
2018-05-09T13:00:26.669Z,21.60
2018-05-09T13:02:54.849Z,21.60
2018-05-09T13:05:23.851Z,21.60
2018-05-09T13:07:52.843Z,21.60
2018-05-09T13:10:21.067Z,21.60
2018-05-09T13:12:49.344Z,21.60
2018-05-09T13:15:19.062Z,21.60
2018-05-09T13:17:47.680Z,21.70
2018-05-09T13:20:16.311Z,21.70
2018-05-09T13:22:44.552Z,21.70
2018-05-09T13:25:13.572Z,21.70
2018-05-09T13:27:42.194Z,21.70
2018-05-09T13:30:10.426Z,21.80
2018-05-09T13:32:39.414Z,21.80
2018-05-09T13:35:08.030Z,22.00
2018-05-09T13:37:36.254Z,22.00
2018-05-09T13:40:04.536Z,21.90
2018-05-09T13:42:33.113Z,21.90
2018-05-09T13:45:01.339Z,21.90
2018-05-09T13:47:29.563Z,21.80
2018-05-09T13:49:57.778Z,21.80
2018-05-09T13:52:26.014Z,21.80
2018-05-09T13:54:54.239Z,21.80
2018-05-09T13:57:22.450Z,21.80
2018-05-09T13:59:50.675Z,21.80
2018-05-09T14:02:18.909Z,21.80
2018-05-09T14:04:47.149Z,21.80
2018-05-09T14:07:15.370Z,21.80
2018-05-09T14:09:44.424Z,21.80
2018-05-09T14:12:13.322Z,21.80
2018-05-09T14:14:41.544Z,21.80
2018-05-09T14:17:09.754Z,21.80
2018-05-09T14:19:37.979Z,21.80
2018-05-09T14:22:06.210Z,21.80
2018-05-09T14:24:34.432Z,21.80
2018-05-09T14:27:03.436Z,21.90
2018-05-09T14:29:31.665Z,21.90
2018-05-09T14:31:59.899Z,21.90
2018-05-09T14:34:28.131Z,22.00
2018-05-09T14:36:57.136Z,22.00
2018-05-09T14:39:25.373Z,21.90
2018-05-09T14:41:53.614Z,22.00
2018-05-09T14:44:21.841Z,22.10
2018-05-09T14:46:50.077Z,22.10
2018-05-09T14:49:18.309Z,22.10
2018-05-09T14:51:47.283Z,22.10
2018-05-09T14:54:15.948Z,22.20
2018-05-09T14:56:44.157Z,22.20
2018-05-09T14:59:12.373Z,22.20
2018-05-09T15:01:40.623Z,22.20
2018-05-09T15:04:08.834Z,22.20
2018-05-09T15:06:37.050Z,22.30
2018-05-09T15:09:05.670Z,22.30
2018-05-09T15:11:33.912Z,22.30
2018-05-09T15:14:02.942Z,22.40
2018-05-09T15:16:31.524Z,22.40
2018-05-09T15:19:00.518Z,22.40
2018-05-09T15:21:28.737Z,22.40
2018-05-09T15:23:56.953Z,22.50
2018-05-09T15:26:25.174Z,22.50
2018-05-09T15:28:53.394Z,22.50
2018-05-09T15:31:21.623Z,22.60
2018-05-09T15:33:49.860Z,22.60
2018-05-09T15:36:18.163Z,22.60
2018-05-09T15:38:46.327Z,22.60
2018-05-09T15:41:14.541Z,22.70
2018-05-09T15:43:43.539Z,22.70
2018-05-09T15:46:11.789Z,22.70
2018-05-09T15:48:40.805Z,22.70
2018-05-09T15:51:09.034Z,22.80
2018-05-09T15:53:37.270Z,22.80
2018-05-09T15:56:05.490Z,22.80
2018-05-09T15:58:33.723Z,22.60
2018-05-09T16:01:01.943Z,22.90
2018-05-09T16:03:30.585Z,22.90
2018-05-09T16:05:58.804Z,22.90
2018-05-09T16:08:27.426Z,23.00
2018-05-09T16:10:55.654Z,23.00
2018-05-09T16:13:24.654Z,23.00
2018-05-09T16:15:52.878Z,23.00
2018-05-09T16:18:21.118Z,23.10
2018-05-09T16:20:49.360Z,23.10
2018-05-09T16:23:17.567Z,23.10
2018-05-09T16:25:46.560Z,23.10
2018-05-09T16:28:15.178Z,23.20
2018-05-09T16:30:43.408Z,23.20
2018-05-09T16:33:11.620Z,23.20
2018-05-09T16:35:39.853Z,23.10
2018-05-09T16:38:08.076Z,23.20
2018-05-09T16:40:36.302Z,23.20
2018-05-09T16:43:04.535Z,23.10
2018-05-09T16:45:32.758Z,23.10
2018-05-09T16:48:01.397Z,23.00
2018-05-09T16:50:29.644Z,22.90
2018-05-09T16:52:57.876Z,22.80
2018-05-09T16:55:26.100Z,22.70
2018-05-09T16:57:55.099Z,22.60
2018-05-09T17:00:23.328Z,22.70
2018-05-09T17:02:51.575Z,22.60
2018-05-09T17:05:19.805Z,22.60
2018-05-09T17:07:48.064Z,22.50
2018-05-09T17:10:16.282Z,22.50
2018-05-09T17:12:44.508Z,22.50
2018-05-09T17:15:12.726Z,22.50
2018-05-09T17:17:40.942Z,22.40
2018-05-09T17:20:09.215Z,22.40
2018-05-09T17:22:37.449Z,22.40
2018-05-09T17:25:06.076Z,22.40
2018-05-09T17:27:34.345Z,22.40
2018-05-09T17:30:02.566Z,22.30
2018-05-09T17:32:30.795Z,22.30
2018-05-09T17:34:59.023Z,22.30
2018-05-09T17:37:27.243Z,22.30
2018-05-09T17:39:55.487Z,22.20
2018-05-09T17:42:23.702Z,22.30
2018-05-09T17:44:51.922Z,22.20
2018-05-09T17:47:20.146Z,22.20
2018-05-09T17:49:49.135Z,22.30
2018-05-09T17:52:17.381Z,22.20
2018-05-09T17:54:45.598Z,22.20
2018-05-09T17:57:14.591Z,22.20
2018-05-09T17:59:43.583Z,22.20
2018-05-09T18:02:11.835Z,22.20
2018-05-09T18:04:40.455Z,22.20
2018-05-09T18:07:08.688Z,22.10
2018-05-09T18:09:36.906Z,22.10
2018-05-09T18:12:05.891Z,22.10
2018-05-09T18:14:34.905Z,22.10
2018-05-09T18:17:03.130Z,22.10
2018-05-09T18:19:31.371Z,22.10
2018-05-09T18:21:59.583Z,22.00
2018-05-09T18:24:27.811Z,22.10
2018-05-09T18:26:56.042Z,22.00
2018-05-09T18:29:25.060Z,22.00
2018-05-09T18:31:54.072Z,22.00
2018-05-09T18:34:22.304Z,22.00
2018-05-09T18:36:50.540Z,22.00
2018-05-09T18:39:18.776Z,22.00
2018-05-09T18:41:46.999Z,21.90
2018-05-09T18:44:15.260Z,22.00
2018-05-09T18:46:43.793Z,21.90
2018-05-09T18:49:12.405Z,21.90
2018-05-09T18:51:40.630Z,21.90
2018-05-09T18:54:09.296Z,21.90
2018-05-09T18:56:37.491Z,21.90
2018-05-09T18:59:06.128Z,21.90
2018-05-09T19:01:34.364Z,21.80
2018-05-09T19:04:02.581Z,21.80
2018-05-09T19:06:31.651Z,21.80
2018-05-09T19:08:59.794Z,21.80
2018-05-09T19:11:28.021Z,21.80
2018-05-09T19:13:56.242Z,21.80
2018-05-09T19:16:24.587Z,21.80
2018-05-09T19:18:52.883Z,21.80
2018-05-09T19:21:21.141Z,21.80
2018-05-09T19:23:51.264Z,21.80
2018-05-09T19:26:20.265Z,21.80
2018-05-09T19:28:48.485Z,21.80
2018-05-09T19:31:16.713Z,21.70
2018-05-09T19:33:44.941Z,21.80
2018-05-09T19:36:13.161Z,21.80
2018-05-09T19:38:41.504Z,21.80
2018-05-09T19:41:09.641Z,21.70
2018-05-09T19:43:37.873Z,21.70
2018-05-09T19:46:06.486Z,21.70
2018-05-09T19:48:35.105Z,21.70
2018-05-09T19:51:03.350Z,21.70
2018-05-09T19:53:32.351Z,21.70
2018-05-09T19:56:00.580Z,21.70
2018-05-09T19:58:28.907Z,21.70
2018-05-09T20:00:57.142Z,21.70
2018-05-09T20:03:25.372Z,21.70
2018-05-09T20:05:53.608Z,21.70
2018-05-09T20:08:22.245Z,21.70
2018-05-09T20:10:50.885Z,21.70
2018-05-09T20:13:19.124Z,21.60
2018-05-09T20:15:47.761Z,21.60
2018-05-09T20:18:16.004Z,21.60
2018-05-09T20:20:44.230Z,21.60
2018-05-09T20:23:12.469Z,21.60
2018-05-09T20:25:40.710Z,21.60
2018-05-09T20:28:09.346Z,21.60
2018-05-09T20:30:43.259Z,21.60
2018-05-09T20:33:11.510Z,21.60
2018-05-09T20:35:40.143Z,21.60
2018-05-09T20:38:08.400Z,21.60
2018-05-09T20:40:36.627Z,21.60
2018-05-09T20:43:04.915Z,21.60
2018-05-09T20:45:33.926Z,21.60
2018-05-09T20:48:02.552Z,21.50
2018-05-09T20:50:30.796Z,21.50
2018-05-09T20:52:59.786Z,21.50
2018-05-09T20:55:28.855Z,21.50
2018-05-09T20:57:57.475Z,21.50
2018-05-09T21:00:25.731Z,21.50
2018-05-09T21:02:53.989Z,21.50
2018-05-09T21:05:23.007Z,21.50
2018-05-09T21:07:57.083Z,21.50
2018-05-09T21:10:26.120Z,21.50
2018-05-09T21:12:55.116Z,21.50
2018-05-09T21:15:24.117Z,21.50
2018-05-09T21:17:52.364Z,21.50
2018-05-09T21:20:20.599Z,21.50
2018-05-09T21:22:48.828Z,21.50
2018-05-09T21:25:17.056Z,21.50
2018-05-09T21:27:46.109Z,21.50
2018-05-09T21:30:14.415Z,21.40
2018-05-09T21:32:42.647Z,21.50
2018-05-09T21:35:10.874Z,21.40
2018-05-09T21:37:39.098Z,21.40
2018-05-09T21:40:07.725Z,21.40
2018-05-09T21:42:35.950Z,21.40
2018-05-09T21:45:04.570Z,21.40
2018-05-09T21:47:32.792Z,21.40
2018-05-09T21:50:01.018Z,21.40
2018-05-09T21:52:29.237Z,21.40
2018-05-09T21:54:57.486Z,21.40
2018-05-09T21:57:25.716Z,21.40
2018-05-09T21:59:54.714Z,21.40
2018-05-09T22:02:22.952Z,21.40
2018-05-09T22:04:51.184Z,21.40
2018-05-09T22:07:19.399Z,21.40
2018-05-09T22:09:47.637Z,21.40
2018-05-09T22:12:15.880Z,21.40
2018-05-09T22:14:44.094Z,21.40
2018-05-09T22:17:12.313Z,21.40
2018-05-09T22:19:40.553Z,21.40
2018-05-09T22:22:09.542Z,21.40
2018-05-09T22:24:37.758Z,21.40
2018-05-09T22:27:05.991Z,21.40
2018-05-09T22:29:34.611Z,21.40
2018-05-09T22:32:02.845Z,21.40
2018-05-09T22:34:31.071Z,21.40
2018-05-09T22:37:00.066Z,21.40
2018-05-09T22:39:28.317Z,21.30
2018-05-09T22:41:56.532Z,21.30
2018-05-09T22:44:24.766Z,21.30
2018-05-09T22:46:53.002Z,21.30
2018-05-09T22:49:21.278Z,21.30
2018-05-09T22:51:49.504Z,21.30
2018-05-09T22:54:17.744Z,21.30
2018-05-09T22:56:45.972Z,21.30
2018-05-09T22:59:14.199Z,21.30
2018-05-09T23:01:42.436Z,21.30
2018-05-09T23:04:11.055Z,21.30
2018-05-09T23:06:39.282Z,21.30
2018-05-09T23:09:07.502Z,21.30
2018-05-09T23:11:35.740Z,21.30
2018-05-09T23:14:03.966Z,21.30
2018-05-09T23:16:32.191Z,21.30
2018-05-09T23:19:00.422Z,21.30
2018-05-09T23:21:28.666Z,21.30
2018-05-09T23:23:57.733Z,21.30
2018-05-09T23:26:25.903Z,21.30
2018-05-09T23:28:54.121Z,21.30
2018-05-09T23:31:22.365Z,21.20
2018-05-09T23:33:50.572Z,21.20
2018-05-09T23:36:19.564Z,21.20
2018-05-09T23:38:48.562Z,21.20
2018-05-09T23:41:17.210Z,21.30
2018-05-09T23:43:45.819Z,21.30
2018-05-09T23:46:14.453Z,21.30
2018-05-09T23:48:43.456Z,21.20
2018-05-09T23:51:11.689Z,21.20
2018-05-09T23:53:39.910Z,21.20
2018-05-09T23:56:08.549Z,21.20
2018-05-09T23:58:36.758Z,21.20
